sensor_id;sensor_type;location;lat;lon;timestamp;P1;durP1;ratioP1;P2;durP2;ratioP2
2388;SDS011;1205;47.984;7.668;2024-02-16T00:01:06;14.63;;;6.03;;
2388;SDS011;1205;47.984;7.668;2024-02-16T00:03:31;8.73;;;6.03;;
2388;SDS011;1205;47.984;7.668;2024-02-16T00:05:57;8.40;;;6.03;;
2388;SDS011;1205;47.984;7.668;2024-02-16T00:08:23;7.63;;;5.40;;
2388;SDS011;1205;47.984;7.668;2024-02-16T00:10:48;9.77;;;5.80;;
2388;SDS011;1205;47.984;7.668;2024-02-16T00:13:14;8.30;;;5.70;;
2388;SDS011;1205;47.984;7.668;2024-02-16T00:15:40;8.67;;;6.63;;
2388;SDS011;1205;47.984;7.668;2024-02-16T00:18:06;10.73;;;6.73;;
2388;SDS011;1205;47.984;7.668;2024-02-16T00:20:32;7.57;;;6.20;;
2388;SDS011;1205;47.984;7.668;2024-02-16T00:22:58;7.80;;;6.23;;
2388;SDS011;1205;47.984;7.668;2024-02-16T00:25:25;9.00;;;6.30;;
2388;SDS011;1205;47.984;7.668;2024-02-16T00:27:51;7.70;;;6.13;;
2388;SDS011;1205;47.984;7.668;2024-02-16T00:30:18;9.20;;;6.53;;
2388;SDS011;1205;47.984;7.668;2024-02-16T00:32:44;8.10;;;6.07;;
2388;SDS011;1205;47.984;7.668;2024-02-16T00:35:12;10.90;;;6.43;;
2388;SDS011;1205;47.984;7.668;2024-02-16T00:37:41;9.30;;;6.33;;
2388;SDS011;1205;47.984;7.668;2024-02-16T00:40:07;9.83;;;6.53;;
2388;SDS011;1205;47.984;7.668;2024-02-16T00:42:33;9.77;;;6.60;;
2388;SDS011;1205;47.984;7.668;2024-02-16T00:44:59;15.20;;;5.73;;
2388;SDS011;1205;47.984;7.668;2024-02-16T00:47:28;10.20;;;6.10;;
2388;SDS011;1205;47.984;7.668;2024-02-16T00:49:54;9.33;;;5.83;;
2388;SDS011;1205;47.984;7.668;2024-02-16T00:52:20;8.17;;;5.70;;
2388;SDS011;1205;47.984;7.668;2024-02-16T00:54:47;10.20;;;6.47;;
2388;SDS011;1205;47.984;7.668;2024-02-16T00:57:13;6.90;;;5.80;;
2388;SDS011;1205;47.984;7.668;2024-02-16T00:59:39;11.60;;;6.57;;
2388;SDS011;1205;47.984;7.668;2024-02-16T01:02:05;9.10;;;6.10;;
2388;SDS011;1205;47.984;7.668;2024-02-16T01:04:31;11.17;;;5.93;;
2388;SDS011;1205;47.984;7.668;2024-02-16T01:06:57;11.00;;;5.80;;
2388;SDS011;1205;47.984;7.668;2024-02-16T01:09:23;11.37;;;6.30;;
2388;SDS011;1205;47.984;7.668;2024-02-16T01:11:48;9.00;;;6.00;;
2388;SDS011;1205;47.984;7.668;2024-02-16T01:14:14;13.40;;;6.00;;
2388;SDS011;1205;47.984;7.668;2024-02-16T01:16:40;12.30;;;6.00;;
2388;SDS011;1205;47.984;7.668;2024-02-16T01:19:05;9.40;;;5.37;;
2388;SDS011;1205;47.984;7.668;2024-02-16T01:21:32;10.13;;;6.30;;
2388;SDS011;1205;47.984;7.668;2024-02-16T01:23:58;6.93;;;5.30;;
2388;SDS011;1205;47.984;7.668;2024-02-16T01:26:25;7.17;;;5.50;;
2388;SDS011;1205;47.984;7.668;2024-02-16T01:28:52;12.80;;;6.50;;
2388;SDS011;1205;47.984;7.668;2024-02-16T01:31:17;7.50;;;5.90;;
2388;SDS011;1205;47.984;7.668;2024-02-16T01:33:43;14.10;;;5.87;;
2388;SDS011;1205;47.984;7.668;2024-02-16T01:36:08;9.60;;;5.70;;
2388;SDS011;1205;47.984;7.668;2024-02-16T01:38:34;7.47;;;5.90;;
2388;SDS011;1205;47.984;7.668;2024-02-16T01:40:59;7.10;;;5.80;;
2388;SDS011;1205;47.984;7.668;2024-02-16T01:43:27;7.10;;;5.87;;
2388;SDS011;1205;47.984;7.668;2024-02-16T01:45:52;10.70;;;5.80;;
2388;SDS011;1205;47.984;7.668;2024-02-16T01:48:18;5.93;;;5.43;;
2388;SDS011;1205;47.984;7.668;2024-02-16T01:50:44;8.10;;;5.90;;
2388;SDS011;1205;47.984;7.668;2024-02-16T01:53:14;6.73;;;5.93;;
2388;SDS011;1205;47.984;7.668;2024-02-16T01:55:43;9.30;;;5.87;;
2388;SDS011;1205;47.984;7.668;2024-02-16T01:58:10;6.50;;;5.53;;
2388;SDS011;1205;47.984;7.668;2024-02-16T02:00:36;17.97;;;6.37;;
2388;SDS011;1205;47.984;7.668;2024-02-16T02:03:02;6.97;;;5.97;;
2388;SDS011;1205;47.984;7.668;2024-02-16T02:05:28;13.97;;;6.00;;
2388;SDS011;1205;47.984;7.668;2024-02-16T02:07:54;8.03;;;5.70;;
2388;SDS011;1205;47.984;7.668;2024-02-16T02:10:19;7.17;;;5.23;;
2388;SDS011;1205;47.984;7.668;2024-02-16T02:12:45;4.90;;;4.33;;
2388;SDS011;1205;47.984;7.668;2024-02-16T02:15:11;10.17;;;5.23;;
2388;SDS011;1205;47.984;7.668;2024-02-16T02:17:37;5.67;;;5.00;;
2388;SDS011;1205;47.984;7.668;2024-02-16T02:20:03;6.10;;;4.73;;
2388;SDS011;1205;47.984;7.668;2024-02-16T02:22:31;8.03;;;5.60;;
2388;SDS011;1205;47.984;7.668;2024-02-16T02:24:57;6.33;;;4.90;;
2388;SDS011;1205;47.984;7.668;2024-02-16T02:27:23;7.20;;;5.83;;
2388;SDS011;1205;47.984;7.668;2024-02-16T02:29:48;11.77;;;6.10;;
2388;SDS011;1205;47.984;7.668;2024-02-16T02:32:14;9.10;;;6.07;;
2388;SDS011;1205;47.984;7.668;2024-02-16T02:34:40;8.33;;;5.00;;
2388;SDS011;1205;47.984;7.668;2024-02-16T02:37:05;9.33;;;5.40;;
2388;SDS011;1205;47.984;7.668;2024-02-16T02:39:32;9.40;;;5.47;;
2388;SDS011;1205;47.984;7.668;2024-02-16T02:41:58;9.13;;;6.27;;
2388;SDS011;1205;47.984;7.668;2024-02-16T02:44:26;10.37;;;6.43;;
2388;SDS011;1205;47.984;7.668;2024-02-16T02:46:52;7.87;;;5.10;;
2388;SDS011;1205;47.984;7.668;2024-02-16T02:49:21;9.03;;;5.80;;
2388;SDS011;1205;47.984;7.668;2024-02-16T02:51:46;11.57;;;6.30;;
2388;SDS011;1205;47.984;7.668;2024-02-16T02:54:12;6.87;;;5.13;;
2388;SDS011;1205;47.984;7.668;2024-02-16T02:56:37;7.93;;;6.00;;
2388;SDS011;1205;47.984;7.668;2024-02-16T02:59:03;7.73;;;5.80;;
2388;SDS011;1205;47.984;7.668;2024-02-16T03:01:30;6.97;;;5.90;;
2388;SDS011;1205;47.984;7.668;2024-02-16T03:03:56;5.63;;;5.13;;
2388;SDS011;1205;47.984;7.668;2024-02-16T03:06:22;7.40;;;4.83;;
2388;SDS011;1205;47.984;7.668;2024-02-16T03:08:48;5.30;;;4.63;;
2388;SDS011;1205;47.984;7.668;2024-02-16T03:11:14;7.70;;;4.97;;
2388;SDS011;1205;47.984;7.668;2024-02-16T03:13:39;6.60;;;4.50;;
2388;SDS011;1205;47.984;7.668;2024-02-16T03:16:05;11.37;;;5.27;;
2388;SDS011;1205;47.984;7.668;2024-02-16T03:18:31;15.57;;;4.70;;
2388;SDS011;1205;47.984;7.668;2024-02-16T03:20:57;7.77;;;4.80;;
2388;SDS011;1205;47.984;7.668;2024-02-16T03:23:23;6.37;;;5.10;;
2388;SDS011;1205;47.984;7.668;2024-02-16T03:25:49;11.67;;;4.83;;
2388;SDS011;1205;47.984;7.668;2024-02-16T03:28:15;9.00;;;4.50;;
2388;SDS011;1205;47.984;7.668;2024-02-16T03:30:41;7.33;;;4.97;;
2388;SDS011;1205;47.984;7.668;2024-02-16T03:33:08;6.13;;;4.53;;
2388;SDS011;1205;47.984;7.668;2024-02-16T03:35:33;6.23;;;3.90;;
2388;SDS011;1205;47.984;7.668;2024-02-16T03:37:59;4.23;;;3.87;;
2388;SDS011;1205;47.984;7.668;2024-02-16T03:40:25;8.80;;;4.17;;
2388;SDS011;1205;47.984;7.668;2024-02-16T03:42:51;6.00;;;4.40;;
2388;SDS011;1205;47.984;7.668;2024-02-16T03:45:17;11.50;;;4.80;;
2388;SDS011;1205;47.984;7.668;2024-02-16T03:47:43;5.20;;;3.83;;
2388;SDS011;1205;47.984;7.668;2024-02-16T03:50:09;7.20;;;4.47;;
2388;SDS011;1205;47.984;7.668;2024-02-16T03:52:35;4.30;;;3.90;;
2388;SDS011;1205;47.984;7.668;2024-02-16T03:55:01;4.23;;;3.83;;
2388;SDS011;1205;47.984;7.668;2024-02-16T03:57:27;6.70;;;3.27;;
2388;SDS011;1205;47.984;7.668;2024-02-16T03:59:55;6.23;;;4.03;;
2388;SDS011;1205;47.984;7.668;2024-02-16T04:02:21;4.37;;;3.70;;
2388;SDS011;1205;47.984;7.668;2024-02-16T04:04:46;3.10;;;2.90;;
2388;SDS011;1205;47.984;7.668;2024-02-16T04:07:12;2.10;;;1.90;;
2388;SDS011;1205;47.984;7.668;2024-02-16T04:09:37;2.40;;;1.67;;
2388;SDS011;1205;47.984;7.668;2024-02-16T04:12:03;1.70;;;1.60;;
2388;SDS011;1205;47.984;7.668;2024-02-16T04:14:29;4.23;;;1.60;;
2388;SDS011;1205;47.984;7.668;2024-02-16T04:16:55;2.27;;;1.50;;
2388;SDS011;1205;47.984;7.668;2024-02-16T04:19:25;2.83;;;1.80;;
2388;SDS011;1205;47.984;7.668;2024-02-16T04:21:51;2.23;;;1.90;;
2388;SDS011;1205;47.984;7.668;2024-02-16T04:24:16;2.33;;;2.17;;
2388;SDS011;1205;47.984;7.668;2024-02-16T04:26:42;2.10;;;1.90;;
2388;SDS011;1205;47.984;7.668;2024-02-16T04:29:08;2.97;;;1.57;;
2388;SDS011;1205;47.984;7.668;2024-02-16T04:31:34;2.00;;;1.80;;
2388;SDS011;1205;47.984;7.668;2024-02-16T04:34:00;1.63;;;1.53;;
2388;SDS011;1205;47.984;7.668;2024-02-16T04:36:26;1.40;;;1.40;;
2388;SDS011;1205;47.984;7.668;2024-02-16T04:38:52;1.40;;;1.30;;
2388;SDS011;1205;47.984;7.668;2024-02-16T04:41:19;1.57;;;1.47;;
2388;SDS011;1205;47.984;7.668;2024-02-16T04:43:45;1.70;;;1.43;;
2388;SDS011;1205;47.984;7.668;2024-02-16T04:46:17;2.93;;;1.10;;
2388;SDS011;1205;47.984;7.668;2024-02-16T04:48:42;2.00;;;1.90;;
2388;SDS011;1205;47.984;7.668;2024-02-16T04:51:08;1.87;;;1.67;;
2388;SDS011;1205;47.984;7.668;2024-02-16T04:53:35;1.37;;;1.37;;
2388;SDS011;1205;47.984;7.668;2024-02-16T04:56:00;1.90;;;1.67;;
2388;SDS011;1205;47.984;7.668;2024-02-16T04:58:27;8.83;;;2.07;;
2388;SDS011;1205;47.984;7.668;2024-02-16T05:00:52;1.83;;;1.57;;
2388;SDS011;1205;47.984;7.668;2024-02-16T05:03:18;3.33;;;1.80;;
2388;SDS011;1205;47.984;7.668;2024-02-16T05:05:43;3.20;;;1.87;;
2388;SDS011;1205;47.984;7.668;2024-02-16T05:08:10;1.30;;;1.30;;
2388;SDS011;1205;47.984;7.668;2024-02-16T05:10:36;2.00;;;1.90;;
2388;SDS011;1205;47.984;7.668;2024-02-16T05:13:01;3.03;;;1.43;;
2388;SDS011;1205;47.984;7.668;2024-02-16T05:15:27;1.73;;;1.63;;
2388;SDS011;1205;47.984;7.668;2024-02-16T05:17:53;2.10;;;2.00;;
2388;SDS011;1205;47.984;7.668;2024-02-16T05:20:18;2.10;;;1.87;;
2388;SDS011;1205;47.984;7.668;2024-02-16T05:22:45;3.50;;;1.73;;
2388;SDS011;1205;47.984;7.668;2024-02-16T05:25:11;1.70;;;1.60;;
2388;SDS011;1205;47.984;7.668;2024-02-16T05:27:38;2.30;;;1.60;;
2388;SDS011;1205;47.984;7.668;2024-02-16T05:30:04;1.80;;;1.70;;
2388;SDS011;1205;47.984;7.668;2024-02-16T05:32:33;1.63;;;1.53;;
2388;SDS011;1205;47.984;7.668;2024-02-16T05:35:03;2.30;;;2.10;;
2388;SDS011;1205;47.984;7.668;2024-02-16T05:37:47;1.97;;;1.87;;
2388;SDS011;1205;47.984;7.668;2024-02-16T05:40:20;1.77;;;1.67;;
2388;SDS011;1205;47.984;7.668;2024-02-16T05:42:56;2.33;;;2.00;;
2388;SDS011;1205;47.984;7.668;2024-02-16T05:45:23;1.67;;;1.60;;
2388;SDS011;1205;47.984;7.668;2024-02-16T05:47:49;1.83;;;1.73;;
2388;SDS011;1205;47.984;7.668;2024-02-16T05:50:16;1.50;;;1.40;;
2388;SDS011;1205;47.984;7.668;2024-02-16T05:52:42;1.93;;;1.83;;
2388;SDS011;1205;47.984;7.668;2024-02-16T05:55:09;3.37;;;1.73;;
2388;SDS011;1205;47.984;7.668;2024-02-16T05:57:36;2.53;;;1.67;;
2388;SDS011;1205;47.984;7.668;2024-02-16T06:00:05;2.80;;;1.83;;
2388;SDS011;1205;47.984;7.668;2024-02-16T06:02:33;2.07;;;1.97;;
2388;SDS011;1205;47.984;7.668;2024-02-16T06:04:59;4.63;;;2.77;;
2388;SDS011;1205;47.984;7.668;2024-02-16T06:07:25;4.20;;;1.80;;
2388;SDS011;1205;47.984;7.668;2024-02-16T06:09:51;1.70;;;1.60;;
2388;SDS011;1205;47.984;7.668;2024-02-16T06:12:19;1.50;;;1.40;;
2388;SDS011;1205;47.984;7.668;2024-02-16T06:14:45;3.20;;;1.50;;
2388;SDS011;1205;47.984;7.668;2024-02-16T06:17:11;1.53;;;1.43;;
2388;SDS011;1205;47.984;7.668;2024-02-16T06:19:39;2.27;;;1.50;;
2388;SDS011;1205;47.984;7.668;2024-02-16T06:22:05;2.87;;;1.90;;
2388;SDS011;1205;47.984;7.668;2024-02-16T06:24:33;1.40;;;1.30;;
2388;SDS011;1205;47.984;7.668;2024-02-16T06:26:59;5.07;;;1.73;;
2388;SDS011;1205;47.984;7.668;2024-02-16T06:29:24;1.47;;;1.27;;
2388;SDS011;1205;47.984;7.668;2024-02-16T06:31:50;1.10;;;1.10;;
2388;SDS011;1205;47.984;7.668;2024-02-16T06:34:17;7.40;;;6.40;;
2388;SDS011;1205;47.984;7.668;2024-02-16T06:36:43;16.67;;;12.50;;
2388;SDS011;1205;47.984;7.668;2024-02-16T06:39:08;11.37;;;7.97;;
2388;SDS011;1205;47.984;7.668;2024-02-16T06:41:41;12.50;;;7.00;;
2388;SDS011;1205;47.984;7.668;2024-02-16T06:44:11;7.20;;;2.40;;
2388;SDS011;1205;47.984;7.668;2024-02-16T06:46:40;3.47;;;1.93;;
2388;SDS011;1205;47.984;7.668;2024-02-16T06:49:06;5.80;;;1.73;;
2388;SDS011;1205;47.984;7.668;2024-02-16T06:51:32;1.80;;;1.70;;
2388;SDS011;1205;47.984;7.668;2024-02-16T06:53:58;1.67;;;1.57;;
2388;SDS011;1205;47.984;7.668;2024-02-16T06:56:23;1.60;;;1.50;;
2388;SDS011;1205;47.984;7.668;2024-02-16T06:58:49;3.57;;;1.50;;
2388;SDS011;1205;47.984;7.668;2024-02-16T07:01:15;2.93;;;1.30;;
2388;SDS011;1205;47.984;7.668;2024-02-16T07:03:42;1.63;;;1.53;;
2388;SDS011;1205;47.984;7.668;2024-02-16T07:06:08;1.67;;;1.67;;
2388;SDS011;1205;47.984;7.668;2024-02-16T07:08:41;2.20;;;1.60;;
2388;SDS011;1205;47.984;7.668;2024-02-16T07:11:08;1.70;;;1.60;;
2388;SDS011;1205;47.984;7.668;2024-02-16T07:13:36;2.10;;;1.40;;
2388;SDS011;1205;47.984;7.668;2024-02-16T07:16:03;3.63;;;1.37;;
2388;SDS011;1205;47.984;7.668;2024-02-16T07:18:29;6.30;;;1.60;;
2388;SDS011;1205;47.984;7.668;2024-02-16T07:20:55;2.03;;;1.47;;
2388;SDS011;1205;47.984;7.668;2024-02-16T07:23:21;1.87;;;1.70;;
2388;SDS011;1205;47.984;7.668;2024-02-16T07:25:47;1.53;;;1.43;;
2388;SDS011;1205;47.984;7.668;2024-02-16T07:28:13;8.23;;;1.77;;
2388;SDS011;1205;47.984;7.668;2024-02-16T07:30:39;3.03;;;1.80;;
2388;SDS011;1205;47.984;7.668;2024-02-16T07:33:08;4.60;;;1.87;;
2388;SDS011;1205;47.984;7.668;2024-02-16T07:35:34;3.80;;;1.40;;
2388;SDS011;1205;47.984;7.668;2024-02-16T07:38:03;4.13;;;1.73;;
2388;SDS011;1205;47.984;7.668;2024-02-16T07:40:29;4.57;;;1.50;;
2388;SDS011;1205;47.984;7.668;2024-02-16T07:42:55;6.43;;;1.63;;
2388;SDS011;1205;47.984;7.668;2024-02-16T07:45:21;3.93;;;1.70;;
2388;SDS011;1205;47.984;7.668;2024-02-16T07:47:47;3.27;;;1.50;;
2388;SDS011;1205;47.984;7.668;2024-02-16T07:50:13;9.33;;;1.50;;
2388;SDS011;1205;47.984;7.668;2024-02-16T07:52:39;1.80;;;1.73;;
2388;SDS011;1205;47.984;7.668;2024-02-16T07:55:07;5.33;;;1.67;;
2388;SDS011;1205;47.984;7.668;2024-02-16T07:57:34;6.60;;;1.60;;
2388;SDS011;1205;47.984;7.668;2024-02-16T07:59:59;2.00;;;1.63;;
2388;SDS011;1205;47.984;7.668;2024-02-16T08:02:25;4.93;;;1.67;;
2388;SDS011;1205;47.984;7.668;2024-02-16T08:04:51;4.03;;;1.63;;
2388;SDS011;1205;47.984;7.668;2024-02-16T08:07:17;1.30;;;1.20;;
2388;SDS011;1205;47.984;7.668;2024-02-16T08:09:45;2.00;;;1.20;;
2388;SDS011;1205;47.984;7.668;2024-02-16T08:12:14;2.53;;;1.50;;
2388;SDS011;1205;47.984;7.668;2024-02-16T08:14:41;1.93;;;1.47;;
2388;SDS011;1205;47.984;7.668;2024-02-16T08:17:07;1.77;;;1.30;;
2388;SDS011;1205;47.984;7.668;2024-02-16T08:19:34;2.83;;;1.60;;
2388;SDS011;1205;47.984;7.668;2024-02-16T08:22:01;2.33;;;1.53;;
2388;SDS011;1205;47.984;7.668;2024-02-16T08:24:28;2.50;;;1.43;;
2388;SDS011;1205;47.984;7.668;2024-02-16T08:26:54;2.30;;;1.40;;
2388;SDS011;1205;47.984;7.668;2024-02-16T08:29:21;2.63;;;1.67;;
2388;SDS011;1205;47.984;7.668;2024-02-16T08:31:49;1.23;;;1.10;;
2388;SDS011;1205;47.984;7.668;2024-02-16T08:34:16;4.70;;;1.90;;
2388;SDS011;1205;47.984;7.668;2024-02-16T08:36:44;5.00;;;1.47;;
2388;SDS011;1205;47.984;7.668;2024-02-16T08:39:11;2.63;;;1.37;;
2388;SDS011;1205;47.984;7.668;2024-02-16T08:41:38;1.70;;;1.43;;
2388;SDS011;1205;47.984;7.668;2024-02-16T08:44:04;3.27;;;1.67;;
2388;SDS011;1205;47.984;7.668;2024-02-16T08:46:29;3.70;;;1.40;;
2388;SDS011;1205;47.984;7.668;2024-02-16T08:48:55;8.00;;;1.80;;
2388;SDS011;1205;47.984;7.668;2024-02-16T08:51:21;2.30;;;1.87;;
2388;SDS011;1205;47.984;7.668;2024-02-16T08:53:46;3.77;;;2.10;;
2388;SDS011;1205;47.984;7.668;2024-02-16T08:56:12;2.30;;;1.63;;
2388;SDS011;1205;47.984;7.668;2024-02-16T08:58:38;1.70;;;1.60;;
2388;SDS011;1205;47.984;7.668;2024-02-16T09:01:04;1.60;;;1.50;;
2388;SDS011;1205;47.984;7.668;2024-02-16T09:03:30;2.50;;;1.57;;
2388;SDS011;1205;47.984;7.668;2024-02-16T09:06:03;2.50;;;1.80;;
2388;SDS011;1205;47.984;7.668;2024-02-16T09:08:29;5.20;;;2.00;;
2388;SDS011;1205;47.984;7.668;2024-02-16T09:11:01;4.80;;;2.17;;
2388;SDS011;1205;47.984;7.668;2024-02-16T09:13:33;5.93;;;2.10;;
2388;SDS011;1205;47.984;7.668;2024-02-16T09:16:00;3.70;;;1.90;;
2388;SDS011;1205;47.984;7.668;2024-02-16T09:18:26;3.30;;;2.30;;
2388;SDS011;1205;47.984;7.668;2024-02-16T09:20:52;3.23;;;2.10;;
2388;SDS011;1205;47.984;7.668;2024-02-16T09:23:17;8.53;;;2.30;;
2388;SDS011;1205;47.984;7.668;2024-02-16T09:25:43;4.60;;;1.83;;
2388;SDS011;1205;47.984;7.668;2024-02-16T09:28:11;3.20;;;2.00;;
2388;SDS011;1205;47.984;7.668;2024-02-16T09:30:37;1.70;;;1.60;;
2388;SDS011;1205;47.984;7.668;2024-02-16T09:33:03;2.60;;;1.63;;
2388;SDS011;1205;47.984;7.668;2024-02-16T09:35:29;7.77;;;2.20;;
2388;SDS011;1205;47.984;7.668;2024-02-16T09:37:56;4.10;;;1.87;;
2388;SDS011;1205;47.984;7.668;2024-02-16T09:40:22;4.83;;;2.00;;
2388;SDS011;1205;47.984;7.668;2024-02-16T09:42:48;2.50;;;2.30;;
2388;SDS011;1205;47.984;7.668;2024-02-16T09:45:17;1.83;;;1.60;;
2388;SDS011;1205;47.984;7.668;2024-02-16T09:47:43;3.73;;;2.00;;
2388;SDS011;1205;47.984;7.668;2024-02-16T09:50:11;2.83;;;1.90;;
2388;SDS011;1205;47.984;7.668;2024-02-16T09:52:38;6.00;;;1.77;;
2388;SDS011;1205;47.984;7.668;2024-02-16T09:55:05;3.97;;;1.87;;
2388;SDS011;1205;47.984;7.668;2024-02-16T09:57:35;2.97;;;1.90;;
2388;SDS011;1205;47.984;7.668;2024-02-16T10:00:01;3.13;;;1.90;;
2388;SDS011;1205;47.984;7.668;2024-02-16T10:02:38;3.63;;;2.03;;
2388;SDS011;1205;47.984;7.668;2024-02-16T10:07:41;3.00;;;1.90;;
2388;SDS011;1205;47.984;7.668;2024-02-16T10:10:19;2.77;;;1.77;;
2388;SDS011;1205;47.984;7.668;2024-02-16T10:13:01;2.17;;;2.00;;
2388;SDS011;1205;47.984;7.668;2024-02-16T10:15:31;3.27;;;2.07;;
2388;SDS011;1205;47.984;7.668;2024-02-16T10:18:03;6.20;;;2.50;;
2388;SDS011;1205;47.984;7.668;2024-02-16T10:20:33;3.87;;;2.43;;
2388;SDS011;1205;47.984;7.668;2024-02-16T10:25:28;5.70;;;2.97;;
2388;SDS011;1205;47.984;7.668;2024-02-16T10:27:54;3.00;;;2.40;;
2388;SDS011;1205;47.984;7.668;2024-02-16T10:30:22;9.17;;;2.30;;
2388;SDS011;1205;47.984;7.668;2024-02-16T10:32:54;5.13;;;2.50;;
2388;SDS011;1205;47.984;7.668;2024-02-16T10:35:19;3.03;;;1.73;;
2388;SDS011;1205;47.984;7.668;2024-02-16T10:37:46;4.20;;;2.37;;
2388;SDS011;1205;47.984;7.668;2024-02-16T10:40:12;3.50;;;1.93;;
2388;SDS011;1205;47.984;7.668;2024-02-16T10:42:43;14.60;;;2.40;;
2388;SDS011;1205;47.984;7.668;2024-02-16T10:45:10;7.17;;;2.20;;
2388;SDS011;1205;47.984;7.668;2024-02-16T10:47:38;3.43;;;2.00;;
2388;SDS011;1205;47.984;7.668;2024-02-16T10:50:04;3.73;;;2.43;;
2388;SDS011;1205;47.984;7.668;2024-02-16T10:52:30;4.70;;;2.50;;
2388;SDS011;1205;47.984;7.668;2024-02-16T10:54:56;5.67;;;2.13;;
2388;SDS011;1205;47.984;7.668;2024-02-16T10:57:24;2.73;;;1.97;;
2388;SDS011;1205;47.984;7.668;2024-02-16T10:59:52;4.67;;;2.27;;
2388;SDS011;1205;47.984;7.668;2024-02-16T11:02:19;7.27;;;1.87;;
2388;SDS011;1205;47.984;7.668;2024-02-16T11:04:46;4.00;;;1.97;;
2388;SDS011;1205;47.984;7.668;2024-02-16T11:07:17;2.83;;;2.33;;
2388;SDS011;1205;47.984;7.668;2024-02-16T11:09:44;4.80;;;2.20;;
2388;SDS011;1205;47.984;7.668;2024-02-16T11:12:14;4.00;;;2.10;;
2388;SDS011;1205;47.984;7.668;2024-02-16T11:14:41;4.53;;;2.30;;
2388;SDS011;1205;47.984;7.668;2024-02-16T11:17:08;2.63;;;1.70;;
2388;SDS011;1205;47.984;7.668;2024-02-16T11:19:41;4.23;;;2.20;;
2388;SDS011;1205;47.984;7.668;2024-02-16T11:22:07;4.77;;;2.30;;
2388;SDS011;1205;47.984;7.668;2024-02-16T11:24:34;3.07;;;2.27;;
2388;SDS011;1205;47.984;7.668;2024-02-16T11:27:01;2.60;;;1.80;;
2388;SDS011;1205;47.984;7.668;2024-02-16T11:29:31;5.20;;;2.23;;
2388;SDS011;1205;47.984;7.668;2024-02-16T11:31:58;2.80;;;2.30;;
2388;SDS011;1205;47.984;7.668;2024-02-16T11:34:26;2.60;;;2.37;;
2388;SDS011;1205;47.984;7.668;2024-02-16T11:36:52;3.10;;;1.90;;
2388;SDS011;1205;47.984;7.668;2024-02-16T11:39:20;5.70;;;2.90;;
2388;SDS011;1205;47.984;7.668;2024-02-16T11:41:46;7.67;;;3.17;;
2388;SDS011;1205;47.984;7.668;2024-02-16T11:44:15;16.33;;;5.93;;
2388;SDS011;1205;47.984;7.668;2024-02-16T11:46:41;9.43;;;2.50;;
2388;SDS011;1205;47.984;7.668;2024-02-16T11:49:07;3.07;;;2.50;;
2388;SDS011;1205;47.984;7.668;2024-02-16T11:51:33;2.47;;;2.27;;
2388;SDS011;1205;47.984;7.668;2024-02-16T11:53:59;2.20;;;1.90;;
2388;SDS011;1205;47.984;7.668;2024-02-16T11:56:25;1.80;;;1.70;;
2388;SDS011;1205;47.984;7.668;2024-02-16T11:58:54;3.37;;;2.10;;
2388;SDS011;1205;47.984;7.668;2024-02-16T12:01:20;4.30;;;2.30;;
2388;SDS011;1205;47.984;7.668;2024-02-16T12:03:46;1.93;;;1.83;;
2388;SDS011;1205;47.984;7.668;2024-02-16T12:06:19;2.20;;;2.10;;
2388;SDS011;1205;47.984;7.668;2024-02-16T12:08:49;4.00;;;2.00;;
2388;SDS011;1205;47.984;7.668;2024-02-16T12:11:17;4.77;;;2.20;;
2388;SDS011;1205;47.984;7.668;2024-02-16T12:13:44;7.10;;;2.30;;
2388;SDS011;1205;47.984;7.668;2024-02-16T12:16:10;4.60;;;2.00;;
2388;SDS011;1205;47.984;7.668;2024-02-16T12:18:36;6.07;;;1.90;;
2388;SDS011;1205;47.984;7.668;2024-02-16T12:21:02;6.10;;;2.80;;
2388;SDS011;1205;47.984;7.668;2024-02-16T12:23:33;9.30;;;2.67;;
2388;SDS011;1205;47.984;7.668;2024-02-16T12:25:59;4.97;;;1.90;;
2388;SDS011;1205;47.984;7.668;2024-02-16T12:28:26;2.77;;;1.90;;
2388;SDS011;1205;47.984;7.668;2024-02-16T12:30:53;3.93;;;2.23;;
2388;SDS011;1205;47.984;7.668;2024-02-16T12:33:22;5.63;;;2.77;;
2388;SDS011;1205;47.984;7.668;2024-02-16T12:35:48;2.73;;;2.23;;
2388;SDS011;1205;47.984;7.668;2024-02-16T12:38:13;3.87;;;2.50;;
2388;SDS011;1205;47.984;7.668;2024-02-16T12:40:42;6.10;;;2.10;;
2388;SDS011;1205;47.984;7.668;2024-02-16T12:43:08;4.17;;;2.80;;
2388;SDS011;1205;47.984;7.668;2024-02-16T12:45:36;3.43;;;2.50;;
2388;SDS011;1205;47.984;7.668;2024-02-16T12:48:02;3.43;;;2.00;;
2388;SDS011;1205;47.984;7.668;2024-02-16T12:50:29;5.33;;;2.27;;
2388;SDS011;1205;47.984;7.668;2024-02-16T12:52:55;2.43;;;1.83;;
2388;SDS011;1205;47.984;7.668;2024-02-16T12:55:22;2.97;;;1.53;;
2388;SDS011;1205;47.984;7.668;2024-02-16T12:57:48;4.87;;;2.27;;
2388;SDS011;1205;47.984;7.668;2024-02-16T13:00:14;7.27;;;2.20;;
2388;SDS011;1205;47.984;7.668;2024-02-16T13:02:40;5.00;;;3.00;;
2388;SDS011;1205;47.984;7.668;2024-02-16T13:05:06;6.30;;;3.50;;
2388;SDS011;1205;47.984;7.668;2024-02-16T13:07:33;5.53;;;2.17;;
2388;SDS011;1205;47.984;7.668;2024-02-16T13:09:59;4.57;;;2.70;;
2388;SDS011;1205;47.984;7.668;2024-02-16T13:12:24;5.80;;;2.27;;
2388;SDS011;1205;47.984;7.668;2024-02-16T13:14:50;4.20;;;2.47;;
2388;SDS011;1205;47.984;7.668;2024-02-16T13:17:15;2.93;;;2.23;;
2388;SDS011;1205;47.984;7.668;2024-02-16T13:19:42;5.20;;;2.27;;
2388;SDS011;1205;47.984;7.668;2024-02-16T13:22:07;2.67;;;1.70;;
2388;SDS011;1205;47.984;7.668;2024-02-16T13:24:33;2.53;;;1.80;;
2388;SDS011;1205;47.984;7.668;2024-02-16T13:26:59;4.20;;;1.70;;
2388;SDS011;1205;47.984;7.668;2024-02-16T13:29:25;2.60;;;1.20;;
2388;SDS011;1205;47.984;7.668;2024-02-16T13:31:50;1.50;;;1.40;;
2388;SDS011;1205;47.984;7.668;2024-02-16T13:34:16;2.53;;;1.73;;
2388;SDS011;1205;47.984;7.668;2024-02-16T13:36:41;2.13;;;1.83;;
2388;SDS011;1205;47.984;7.668;2024-02-16T13:39:07;5.30;;;1.63;;
2388;SDS011;1205;47.984;7.668;2024-02-16T13:41:33;1.70;;;1.60;;
2388;SDS011;1205;47.984;7.668;2024-02-16T13:43:59;3.20;;;1.40;;
2388;SDS011;1205;47.984;7.668;2024-02-16T13:46:24;3.00;;;1.60;;
2388;SDS011;1205;47.984;7.668;2024-02-16T13:48:50;1.50;;;1.40;;
2388;SDS011;1205;47.984;7.668;2024-02-16T13:51:16;4.67;;;1.80;;
2388;SDS011;1205;47.984;7.668;2024-02-16T13:53:41;1.80;;;1.10;;
2388;SDS011;1205;47.984;7.668;2024-02-16T13:56:07;1.60;;;1.50;;
2388;SDS011;1205;47.984;7.668;2024-02-16T13:58:33;2.97;;;1.30;;
2388;SDS011;1205;47.984;7.668;2024-02-16T14:01:03;2.57;;;1.80;;
2388;SDS011;1205;47.984;7.668;2024-02-16T14:03:29;4.83;;;1.60;;
2388;SDS011;1205;47.984;7.668;2024-02-16T14:05:55;5.20;;;2.07;;
2388;SDS011;1205;47.984;7.668;2024-02-16T14:08:21;7.10;;;2.03;;
2388;SDS011;1205;47.984;7.668;2024-02-16T14:10:47;5.60;;;1.90;;
2388;SDS011;1205;47.984;7.668;2024-02-16T14:13:13;4.00;;;2.07;;
2388;SDS011;1205;47.984;7.668;2024-02-16T14:15:38;1.83;;;1.73;;
2388;SDS011;1205;47.984;7.668;2024-02-16T14:18:04;2.80;;;1.90;;
2388;SDS011;1205;47.984;7.668;2024-02-16T14:20:32;4.20;;;1.73;;
2388;SDS011;1205;47.984;7.668;2024-02-16T14:22:57;5.47;;;1.90;;
2388;SDS011;1205;47.984;7.668;2024-02-16T14:25:23;3.87;;;2.03;;
2388;SDS011;1205;47.984;7.668;2024-02-16T14:27:50;6.93;;;2.20;;
2388;SDS011;1205;47.984;7.668;2024-02-16T14:30:16;3.13;;;1.60;;
2388;SDS011;1205;47.984;7.668;2024-02-16T14:32:41;3.53;;;1.77;;
2388;SDS011;1205;47.984;7.668;2024-02-16T14:35:07;1.67;;;1.40;;
2388;SDS011;1205;47.984;7.668;2024-02-16T14:37:33;1.50;;;1.40;;
2388;SDS011;1205;47.984;7.668;2024-02-16T14:39:58;7.60;;;2.00;;
2388;SDS011;1205;47.984;7.668;2024-02-16T14:42:25;5.53;;;2.13;;
2388;SDS011;1205;47.984;7.668;2024-02-16T14:44:51;3.40;;;2.07;;
2388;SDS011;1205;47.984;7.668;2024-02-16T14:47:17;5.50;;;1.80;;
2388;SDS011;1205;47.984;7.668;2024-02-16T14:49:42;4.10;;;1.97;;
2388;SDS011;1205;47.984;7.668;2024-02-16T14:52:08;4.70;;;1.80;;
2388;SDS011;1205;47.984;7.668;2024-02-16T14:54:34;5.50;;;1.60;;
2388;SDS011;1205;47.984;7.668;2024-02-16T14:57:00;1.40;;;1.30;;
2388;SDS011;1205;47.984;7.668;2024-02-16T14:59:26;2.73;;;1.43;;
2388;SDS011;1205;47.984;7.668;2024-02-16T15:01:55;5.80;;;1.70;;
2388;SDS011;1205;47.984;7.668;2024-02-16T15:04:21;7.33;;;2.20;;
2388;SDS011;1205;47.984;7.668;2024-02-16T15:06:47;3.63;;;1.70;;
2388;SDS011;1205;47.984;7.668;2024-02-16T15:09:12;2.53;;;1.57;;
2388;SDS011;1205;47.984;7.668;2024-02-16T15:11:38;3.37;;;1.90;;
2388;SDS011;1205;47.984;7.668;2024-02-16T15:14:04;4.10;;;1.83;;
2388;SDS011;1205;47.984;7.668;2024-02-16T15:16:29;2.37;;;1.80;;